sensor_id;sensor_type;location;lat;lon;timestamp;P1;durP1;ratioP1;P2;durP2;ratioP2
21810;SDS011;11067;48.788;9.208;2022-12-07T00:00:52;6.82;;;4.75;;
21810;SDS011;11067;48.788;9.208;2022-12-07T00:03:19;9.88;;;5.18;;
21810;SDS011;11067;48.788;9.208;2022-12-07T00:05:44;9.50;;;5.53;;
21810;SDS011;11067;48.788;9.208;2022-12-07T00:08:10;8.27;;;5.17;;
21810;SDS011;11067;48.788;9.208;2022-12-07T00:10:35;8.60;;;4.90;;
21810;SDS011;11067;48.788;9.208;2022-12-07T00:13:01;8.07;;;5.30;;
21810;SDS011;11067;48.788;9.208;2022-12-07T00:15:26;8.52;;;5.53;;
21810;SDS011;11067;48.788;9.208;2022-12-07T00:17:52;10.60;;;5.50;;
21810;SDS011;11067;48.788;9.208;2022-12-07T00:20:17;8.23;;;5.43;;
21810;SDS011;11067;48.788;9.208;2022-12-07T00:22:43;7.10;;;4.83;;
21810;SDS011;11067;48.788;9.208;2022-12-07T00:25:09;9.57;;;5.37;;
21810;SDS011;11067;48.788;9.208;2022-12-07T00:27:34;8.07;;;5.13;;
21810;SDS011;11067;48.788;9.208;2022-12-07T00:30:00;8.97;;;5.33;;
21810;SDS011;11067;48.788;9.208;2022-12-07T00:32:25;8.77;;;5.75;;
21810;SDS011;11067;48.788;9.208;2022-12-07T00:34:51;8.10;;;5.65;;
21810;SDS011;11067;48.788;9.208;2022-12-07T00:37:17;7.80;;;5.43;;
21810;SDS011;11067;48.788;9.208;2022-12-07T00:39:42;7.95;;;5.88;;
21810;SDS011;11067;48.788;9.208;2022-12-07T00:42:08;8.27;;;5.65;;
21810;SDS011;11067;48.788;9.208;2022-12-07T00:44:33;9.80;;;6.10;;
21810;SDS011;11067;48.788;9.208;2022-12-07T00:46:59;8.40;;;5.60;;
21810;SDS011;11067;48.788;9.208;2022-12-07T00:49:24;8.57;;;5.63;;
21810;SDS011;11067;48.788;9.208;2022-12-07T00:51:50;9.33;;;5.83;;
21810;SDS011;11067;48.788;9.208;2022-12-07T00:54:15;9.60;;;5.72;;
21810;SDS011;11067;48.788;9.208;2022-12-07T00:56:41;9.25;;;5.53;;
21810;SDS011;11067;48.788;9.208;2022-12-07T00:59:06;8.65;;;6.03;;
21810;SDS011;11067;48.788;9.208;2022-12-07T01:01:33;9.27;;;5.97;;
21810;SDS011;11067;48.788;9.208;2022-12-07T01:04:00;10.85;;;6.25;;
21810;SDS011;11067;48.788;9.208;2022-12-07T01:06:27;9.95;;;6.45;;
21810;SDS011;11067;48.788;9.208;2022-12-07T01:08:53;9.27;;;6.17;;
21810;SDS011;11067;48.788;9.208;2022-12-07T01:11:20;12.23;;;6.30;;
21810;SDS011;11067;48.788;9.208;2022-12-07T01:13:49;9.77;;;5.97;;
21810;SDS011;11067;48.788;9.208;2022-12-07T01:16:16;10.70;;;6.63;;
21810;SDS011;11067;48.788;9.208;2022-12-07T01:18:45;9.98;;;6.35;;
21810;SDS011;11067;48.788;9.208;2022-12-07T01:21:13;11.20;;;6.53;;
21810;SDS011;11067;48.788;9.208;2022-12-07T01:23:40;9.70;;;6.13;;
21810;SDS011;11067;48.788;9.208;2022-12-07T01:26:07;10.95;;;6.53;;
21810;SDS011;11067;48.788;9.208;2022-12-07T01:28:36;10.18;;;6.15;;
21810;SDS011;11067;48.788;9.208;2022-12-07T01:31:03;9.93;;;6.23;;
21810;SDS011;11067;48.788;9.208;2022-12-07T01:33:32;9.05;;;6.20;;
21810;SDS011;11067;48.788;9.208;2022-12-07T01:36:05;9.82;;;6.03;;
21810;SDS011;11067;48.788;9.208;2022-12-07T01:38:39;11.60;;;6.22;;
21810;SDS011;11067;48.788;9.208;2022-12-07T01:41:04;11.70;;;6.47;;
21810;SDS011;11067;48.788;9.208;2022-12-07T01:43:31;10.77;;;6.17;;
21810;SDS011;11067;48.788;9.208;2022-12-07T01:45:58;10.77;;;6.23;;
21810;SDS011;11067;48.788;9.208;2022-12-07T01:48:29;10.23;;;6.07;;
21810;SDS011;11067;48.788;9.208;2022-12-07T01:51:00;11.05;;;7.05;;
21810;SDS011;11067;48.788;9.208;2022-12-07T01:53:29;9.95;;;6.55;;
21810;SDS011;11067;48.788;9.208;2022-12-07T01:55:56;9.97;;;6.63;;
21810;SDS011;11067;48.788;9.208;2022-12-07T01:58:23;10.33;;;6.23;;
21810;SDS011;11067;48.788;9.208;2022-12-07T02:00:49;10.93;;;6.70;;
21810;SDS011;11067;48.788;9.208;2022-12-07T02:03:17;11.07;;;6.72;;
21810;SDS011;11067;48.788;9.208;2022-12-07T02:05:49;10.57;;;6.18;;
21810;SDS011;11067;48.788;9.208;2022-12-07T02:08:16;10.55;;;6.50;;
21810;SDS011;11067;48.788;9.208;2022-12-07T02:10:42;12.60;;;6.50;;
21810;SDS011;11067;48.788;9.208;2022-12-07T02:13:12;11.13;;;6.50;;
21810;SDS011;11067;48.788;9.208;2022-12-07T02:15:47;11.23;;;6.90;;
21810;SDS011;11067;48.788;9.208;2022-12-07T02:18:32;9.80;;;6.97;;
21810;SDS011;11067;48.788;9.208;2022-12-07T02:21:21;9.23;;;6.03;;
21810;SDS011;11067;48.788;9.208;2022-12-07T02:29:40;9.75;;;6.18;;
21810;SDS011;11067;48.788;9.208;2022-12-07T02:32:23;11.00;;;6.20;;
21810;SDS011;11067;48.788;9.208;2022-12-07T02:35:05;9.48;;;5.57;;
21810;SDS011;11067;48.788;9.208;2022-12-07T02:43:01;9.25;;;5.90;;
21810;SDS011;11067;48.788;9.208;2022-12-07T02:45:32;9.48;;;5.80;;
21810;SDS011;11067;48.788;9.208;2022-12-07T02:48:02;10.00;;;6.22;;
21810;SDS011;11067;48.788;9.208;2022-12-07T02:50:28;10.50;;;5.53;;
21810;SDS011;11067;48.788;9.208;2022-12-07T02:52:54;10.47;;;6.10;;
21810;SDS011;11067;48.788;9.208;2022-12-07T02:55:22;9.45;;;5.63;;
21810;SDS011;11067;48.788;9.208;2022-12-07T02:58:12;11.45;;;6.35;;
21810;SDS011;11067;48.788;9.208;2022-12-07T03:01:00;9.90;;;6.15;;
21810;SDS011;11067;48.788;9.208;2022-12-07T03:03:36;9.00;;;6.30;;
21810;SDS011;11067;48.788;9.208;2022-12-07T03:11:25;9.70;;;6.13;;
21810;SDS011;11067;48.788;9.208;2022-12-07T03:16:40;10.10;;;5.72;;
21810;SDS011;11067;48.788;9.208;2022-12-07T03:19:14;11.20;;;6.45;;
21810;SDS011;11067;48.788;9.208;2022-12-07T03:21:44;11.60;;;6.57;;
21810;SDS011;11067;48.788;9.208;2022-12-07T03:24:16;8.97;;;5.90;;
21810;SDS011;11067;48.788;9.208;2022-12-07T03:26:46;9.07;;;5.63;;
21810;SDS011;11067;48.788;9.208;2022-12-07T03:29:18;10.18;;;5.85;;
21810;SDS011;11067;48.788;9.208;2022-12-07T03:31:48;9.55;;;5.97;;
21810;SDS011;11067;48.788;9.208;2022-12-07T03:34:24;9.13;;;6.20;;
21810;SDS011;11067;48.788;9.208;2022-12-07T03:37:06;10.88;;;6.78;;
21810;SDS011;11067;48.788;9.208;2022-12-07T03:39:39;9.02;;;5.78;;
21810;SDS011;11067;48.788;9.208;2022-12-07T03:42:11;8.60;;;5.45;;
21810;SDS011;11067;48.788;9.208;2022-12-07T03:44:37;9.53;;;6.10;;
21810;SDS011;11067;48.788;9.208;2022-12-07T03:47:17;9.68;;;6.28;;
21810;SDS011;11067;48.788;9.208;2022-12-07T03:55:35;12.17;;;5.87;;
21810;SDS011;11067;48.788;9.208;2022-12-07T03:58:06;8.98;;;6.10;;
21810;SDS011;11067;48.788;9.208;2022-12-07T04:00:38;9.23;;;5.78;;
21810;SDS011;11067;48.788;9.208;2022-12-07T04:03:03;10.32;;;5.93;;
21810;SDS011;11067;48.788;9.208;2022-12-07T04:05:29;9.18;;;5.60;;
21810;SDS011;11067;48.788;9.208;2022-12-07T04:07:55;9.52;;;5.90;;
21810;SDS011;11067;48.788;9.208;2022-12-07T04:10:20;11.48;;;5.90;;
21810;SDS011;11067;48.788;9.208;2022-12-07T04:12:46;9.52;;;5.57;;
21810;SDS011;11067;48.788;9.208;2022-12-07T04:15:12;10.73;;;6.07;;
21810;SDS011;11067;48.788;9.208;2022-12-07T04:17:37;9.98;;;6.22;;
21810;SDS011;11067;48.788;9.208;2022-12-07T04:20:03;9.32;;;6.15;;
21810;SDS011;11067;48.788;9.208;2022-12-07T04:22:29;10.85;;;6.20;;
21810;SDS011;11067;48.788;9.208;2022-12-07T04:24:55;11.43;;;6.10;;
21810;SDS011;11067;48.788;9.208;2022-12-07T04:27:20;11.43;;;6.47;;
21810;SDS011;11067;48.788;9.208;2022-12-07T04:29:46;9.77;;;5.97;;
21810;SDS011;11067;48.788;9.208;2022-12-07T04:32:12;10.30;;;6.10;;
21810;SDS011;11067;48.788;9.208;2022-12-07T04:34:37;11.63;;;6.70;;
21810;SDS011;11067;48.788;9.208;2022-12-07T04:37:03;10.77;;;6.35;;
21810;SDS011;11067;48.788;9.208;2022-12-07T04:39:29;9.90;;;6.30;;
21810;SDS011;11067;48.788;9.208;2022-12-07T04:41:56;9.23;;;5.72;;
21810;SDS011;11067;48.788;9.208;2022-12-07T04:44:22;10.48;;;6.28;;
21810;SDS011;11067;48.788;9.208;2022-12-07T04:46:50;10.48;;;6.10;;
21810;SDS011;11067;48.788;9.208;2022-12-07T04:49:16;9.20;;;5.72;;
21810;SDS011;11067;48.788;9.208;2022-12-07T04:51:42;8.45;;;5.70;;
21810;SDS011;11067;48.788;9.208;2022-12-07T04:54:08;9.63;;;5.45;;
21810;SDS011;11067;48.788;9.208;2022-12-07T04:56:34;9.02;;;5.20;;
21810;SDS011;11067;48.788;9.208;2022-12-07T04:59:00;8.18;;;4.88;;
21810;SDS011;11067;48.788;9.208;2022-12-07T05:01:26;9.40;;;5.03;;
21810;SDS011;11067;48.788;9.208;2022-12-07T05:03:52;9.02;;;5.03;;
21810;SDS011;11067;48.788;9.208;2022-12-07T05:06:17;9.02;;;5.30;;
21810;SDS011;11067;48.788;9.208;2022-12-07T05:08:43;8.98;;;5.20;;
21810;SDS011;11067;48.788;9.208;2022-12-07T05:11:09;10.07;;;5.25;;
21810;SDS011;11067;48.788;9.208;2022-12-07T05:13:55;8.98;;;5.05;;
21810;SDS011;11067;48.788;9.208;2022-12-07T05:16:21;9.25;;;5.40;;
21810;SDS011;11067;48.788;9.208;2022-12-07T05:18:46;7.97;;;5.33;;
21810;SDS011;11067;48.788;9.208;2022-12-07T05:21:12;8.90;;;4.93;;
21810;SDS011;11067;48.788;9.208;2022-12-07T05:23:37;8.93;;;5.20;;
21810;SDS011;11067;48.788;9.208;2022-12-07T05:26:03;9.83;;;5.50;;
21810;SDS011;11067;48.788;9.208;2022-12-07T05:28:28;9.68;;;5.50;;
21810;SDS011;11067;48.788;9.208;2022-12-07T05:30:54;8.52;;;4.68;;
21810;SDS011;11067;48.788;9.208;2022-12-07T05:33:20;8.10;;;5.05;;
21810;SDS011;11067;48.788;9.208;2022-12-07T05:35:45;9.57;;;5.50;;
21810;SDS011;11067;48.788;9.208;2022-12-07T05:38:11;8.33;;;5.30;;
21810;SDS011;11067;48.788;9.208;2022-12-07T05:40:36;7.77;;;4.90;;
21810;SDS011;11067;48.788;9.208;2022-12-07T05:43:02;10.27;;;5.67;;
21810;SDS011;11067;48.788;9.208;2022-12-07T05:45:27;8.17;;;5.10;;
21810;SDS011;11067;48.788;9.208;2022-12-07T05:47:53;9.50;;;5.83;;
21810;SDS011;11067;48.788;9.208;2022-12-07T05:50:19;9.60;;;6.13;;
21810;SDS011;11067;48.788;9.208;2022-12-07T05:52:44;9.53;;;5.77;;
21810;SDS011;11067;48.788;9.208;2022-12-07T05:55:10;9.80;;;5.70;;
21810;SDS011;11067;48.788;9.208;2022-12-07T05:57:35;10.43;;;6.05;;
21810;SDS011;11067;48.788;9.208;2022-12-07T06:00:02;10.77;;;6.13;;
21810;SDS011;11067;48.788;9.208;2022-12-07T06:02:28;9.60;;;6.10;;
21810;SDS011;11067;48.788;9.208;2022-12-07T06:04:54;10.77;;;5.85;;
21810;SDS011;11067;48.788;9.208;2022-12-07T06:07:19;11.27;;;6.50;;
21810;SDS011;11067;48.788;9.208;2022-12-07T06:09:45;9.73;;;5.50;;
21810;SDS011;11067;48.788;9.208;2022-12-07T06:12:11;10.40;;;6.43;;
21810;SDS011;11067;48.788;9.208;2022-12-07T06:14:56;10.70;;;6.32;;
21810;SDS011;11067;48.788;9.208;2022-12-07T06:17:22;10.02;;;5.88;;
21810;SDS011;11067;48.788;9.208;2022-12-07T06:19:47;10.53;;;6.30;;
21810;SDS011;11067;48.788;9.208;2022-12-07T06:22:13;9.27;;;6.17;;
21810;SDS011;11067;48.788;9.208;2022-12-07T06:24:39;9.97;;;5.87;;
21810;SDS011;11067;48.788;9.208;2022-12-07T06:27:05;13.23;;;7.33;;
21810;SDS011;11067;48.788;9.208;2022-12-07T06:29:31;12.85;;;7.20;;
21810;SDS011;11067;48.788;9.208;2022-12-07T06:31:56;9.18;;;6.10;;
21810;SDS011;11067;48.788;9.208;2022-12-07T06:34:22;13.02;;;6.40;;
21810;SDS011;11067;48.788;9.208;2022-12-07T06:36:49;10.73;;;6.07;;
21810;SDS011;11067;48.788;9.208;2022-12-07T06:39:18;11.73;;;6.63;;
21810;SDS011;11067;48.788;9.208;2022-12-07T06:41:45;10.70;;;6.25;;
21810;SDS011;11067;48.788;9.208;2022-12-07T06:44:11;11.30;;;6.68;;
21810;SDS011;11067;48.788;9.208;2022-12-07T06:46:37;9.23;;;6.30;;
21810;SDS011;11067;48.788;9.208;2022-12-07T06:49:03;11.13;;;6.43;;
21810;SDS011;11067;48.788;9.208;2022-12-07T06:51:29;12.63;;;6.20;;
21810;SDS011;11067;48.788;9.208;2022-12-07T06:53:56;9.43;;;5.50;;
21810;SDS011;11067;48.788;9.208;2022-12-07T06:56:21;10.70;;;5.53;;
21810;SDS011;11067;48.788;9.208;2022-12-07T06:58:47;8.53;;;5.23;;
21810;SDS011;11067;48.788;9.208;2022-12-07T07:01:15;9.15;;;5.72;;
21810;SDS011;11067;48.788;9.208;2022-12-07T07:03:42;9.03;;;5.47;;
21810;SDS011;11067;48.788;9.208;2022-12-07T07:06:08;8.90;;;5.45;;
21810;SDS011;11067;48.788;9.208;2022-12-07T07:08:34;9.57;;;5.47;;
21810;SDS011;11067;48.788;9.208;2022-12-07T07:11:00;8.45;;;5.53;;
21810;SDS011;11067;48.788;9.208;2022-12-07T07:13:26;8.45;;;5.15;;
21810;SDS011;11067;48.788;9.208;2022-12-07T07:15:52;7.25;;;4.85;;
21810;SDS011;11067;48.788;9.208;2022-12-07T07:18:18;7.45;;;4.97;;
21810;SDS011;11067;48.788;9.208;2022-12-07T07:20:43;9.27;;;4.73;;
21810;SDS011;11067;48.788;9.208;2022-12-07T07:23:09;8.53;;;5.00;;
21810;SDS011;11067;48.788;9.208;2022-12-07T07:25:34;6.90;;;4.10;;
21810;SDS011;11067;48.788;9.208;2022-12-07T07:28:00;6.20;;;4.13;;
21810;SDS011;11067;48.788;9.208;2022-12-07T07:30:26;8.93;;;4.05;;
21810;SDS011;11067;48.788;9.208;2022-12-07T07:33:02;6.78;;;4.20;;
21810;SDS011;11067;48.788;9.208;2022-12-07T07:35:29;7.05;;;3.92;;
21810;SDS011;11067;48.788;9.208;2022-12-07T07:37:55;6.05;;;3.75;;
21810;SDS011;11067;48.788;9.208;2022-12-07T07:40:21;6.20;;;3.70;;
21810;SDS011;11067;48.788;9.208;2022-12-07T07:42:48;6.40;;;3.72;;
21810;SDS011;11067;48.788;9.208;2022-12-07T07:45:14;6.38;;;3.50;;
21810;SDS011;11067;48.788;9.208;2022-12-07T07:47:40;5.05;;;3.63;;
21810;SDS011;11067;48.788;9.208;2022-12-07T07:50:06;6.90;;;4.20;;
21810;SDS011;11067;48.788;9.208;2022-12-07T07:52:32;8.13;;;4.75;;
21810;SDS011;11067;48.788;9.208;2022-12-07T07:54:57;6.93;;;3.80;;
21810;SDS011;11067;48.788;9.208;2022-12-07T07:57:23;7.93;;;4.80;;
21810;SDS011;11067;48.788;9.208;2022-12-07T07:59:48;5.90;;;3.90;;
21810;SDS011;11067;48.788;9.208;2022-12-07T08:02:15;6.43;;;3.63;;
21810;SDS011;11067;48.788;9.208;2022-12-07T08:04:42;8.00;;;4.15;;
21810;SDS011;11067;48.788;9.208;2022-12-07T08:07:08;6.93;;;3.53;;
21810;SDS011;11067;48.788;9.208;2022-12-07T08:09:33;7.57;;;4.37;;
21810;SDS011;11067;48.788;9.208;2022-12-07T08:11:59;6.50;;;4.10;;
21810;SDS011;11067;48.788;9.208;2022-12-07T08:14:25;6.03;;;3.70;;
21810;SDS011;11067;48.788;9.208;2022-12-07T08:16:52;7.05;;;3.92;;
21810;SDS011;11067;48.788;9.208;2022-12-07T08:19:18;5.63;;;3.58;;
21810;SDS011;11067;48.788;9.208;2022-12-07T08:21:43;5.80;;;3.38;;
21810;SDS011;11067;48.788;9.208;2022-12-07T08:24:09;5.32;;;3.58;;
21810;SDS011;11067;48.788;9.208;2022-12-07T08:26:34;9.60;;;3.77;;
21810;SDS011;11067;48.788;9.208;2022-12-07T08:29:00;8.33;;;3.80;;
21810;SDS011;11067;48.788;9.208;2022-12-07T08:31:25;7.90;;;3.80;;
21810;SDS011;11067;48.788;9.208;2022-12-07T08:33:52;6.20;;;3.70;;
21810;SDS011;11067;48.788;9.208;2022-12-07T08:36:18;7.55;;;3.67;;
21810;SDS011;11067;48.788;9.208;2022-12-07T08:38:45;7.00;;;3.65;;
21810;SDS011;11067;48.788;9.208;2022-12-07T08:41:11;5.72;;;3.88;;
21810;SDS011;11067;48.788;9.208;2022-12-07T08:43:36;7.05;;;4.22;;
21810;SDS011;11067;48.788;9.208;2022-12-07T08:46:07;7.57;;;4.45;;
21810;SDS011;11067;48.788;9.208;2022-12-07T08:48:34;6.00;;;3.80;;
21810;SDS011;11067;48.788;9.208;2022-12-07T08:51:03;6.80;;;3.92;;
21810;SDS011;11067;48.788;9.208;2022-12-07T08:53:29;6.25;;;4.10;;
21810;SDS011;11067;48.788;9.208;2022-12-07T08:55:55;6.57;;;3.85;;
21810;SDS011;11067;48.788;9.208;2022-12-07T08:58:22;6.47;;;4.05;;
21810;SDS011;11067;48.788;9.208;2022-12-07T09:00:47;7.38;;;4.13;;
21810;SDS011;11067;48.788;9.208;2022-12-07T09:03:15;7.82;;;4.10;;
21810;SDS011;11067;48.788;9.208;2022-12-07T09:05:41;6.38;;;4.18;;
21810;SDS011;11067;48.788;9.208;2022-12-07T09:08:07;4.80;;;3.50;;
21810;SDS011;11067;48.788;9.208;2022-12-07T09:10:33;6.50;;;4.10;;
21810;SDS011;11067;48.788;9.208;2022-12-07T09:12:58;6.90;;;4.00;;
21810;SDS011;11067;48.788;9.208;2022-12-07T09:15:26;7.50;;;4.45;;
21810;SDS011;11067;48.788;9.208;2022-12-07T09:17:52;5.75;;;3.67;;
21810;SDS011;11067;48.788;9.208;2022-12-07T09:20:18;6.60;;;4.13;;
21810;SDS011;11067;48.788;9.208;2022-12-07T09:22:44;6.93;;;3.58;;
21810;SDS011;11067;48.788;9.208;2022-12-07T09:25:09;8.20;;;3.80;;
21810;SDS011;11067;48.788;9.208;2022-12-07T09:27:35;11.52;;;4.03;;
21810;SDS011;11067;48.788;9.208;2022-12-07T09:30:01;8.70;;;3.72;;
21810;SDS011;11067;48.788;9.208;2022-12-07T09:32:28;6.35;;;3.20;;
21810;SDS011;11067;48.788;9.208;2022-12-07T09:34:53;5.63;;;3.40;;
21810;SDS011;11067;48.788;9.208;2022-12-07T09:37:19;6.63;;;2.78;;
21810;SDS011;11067;48.788;9.208;2022-12-07T09:39:44;8.85;;;3.05;;
21810;SDS011;11067;48.788;9.208;2022-12-07T09:42:10;4.07;;;2.73;;
21810;SDS011;11067;48.788;9.208;2022-12-07T09:44:54;3.65;;;2.65;;
21810;SDS011;11067;48.788;9.208;2022-12-07T09:47:20;4.90;;;2.63;;
21810;SDS011;11067;48.788;9.208;2022-12-07T09:49:46;3.72;;;2.50;;
21810;SDS011;11067;48.788;9.208;2022-12-07T09:54:46;5.32;;;2.75;;
21810;SDS011;11067;48.788;9.208;2022-12-07T09:57:13;4.13;;;2.70;;
21810;SDS011;11067;48.788;9.208;2022-12-07T09:59:40;3.28;;;2.33;;
21810;SDS011;11067;48.788;9.208;2022-12-07T10:02:25;4.38;;;2.75;;
21810;SDS011;11067;48.788;9.208;2022-12-07T10:04:59;4.05;;;2.33;;
21810;SDS011;11067;48.788;9.208;2022-12-07T10:07:25;5.03;;;2.70;;
21810;SDS011;11067;48.788;9.208;2022-12-07T10:09:50;4.63;;;2.65;;
21810;SDS011;11067;48.788;9.208;2022-12-07T10:12:16;5.93;;;2.70;;
21810;SDS011;11067;48.788;9.208;2022-12-07T10:14:55;5.53;;;2.70;;
21810;SDS011;11067;48.788;9.208;2022-12-07T10:20:13;4.95;;;2.20;;
21810;SDS011;11067;48.788;9.208;2022-12-07T10:23:01;4.90;;;3.00;;
21810;SDS011;11067;48.788;9.208;2022-12-07T10:25:33;4.53;;;2.70;;
21810;SDS011;11067;48.788;9.208;2022-12-07T10:28:02;4.90;;;2.35;;
21810;SDS011;11067;48.788;9.208;2022-12-07T10:30:28;3.43;;;2.20;;
21810;SDS011;11067;48.788;9.208;2022-12-07T10:32:54;4.28;;;2.35;;
21810;SDS011;11067;48.788;9.208;2022-12-07T10:35:22;3.93;;;2.40;;
21810;SDS011;11067;48.788;9.208;2022-12-07T10:37:50;4.00;;;2.53;;
21810;SDS011;11067;48.788;9.208;2022-12-07T10:40:30;4.60;;;2.33;;
21810;SDS011;11067;48.788;9.208;2022-12-07T10:43:02;3.72;;;2.28;;
21810;SDS011;11067;48.788;9.208;2022-12-07T10:56:29;4.30;;;2.43;;
21810;SDS011;11067;48.788;9.208;2022-12-07T11:01:39;4.40;;;2.50;;
21810;SDS011;11067;48.788;9.208;2022-12-07T11:07:19;5.53;;;2.50;;
21810;SDS011;11067;48.788;9.208;2022-12-07T11:09:59;4.03;;;2.47;;
21810;SDS011;11067;48.788;9.208;2022-12-07T11:18:02;7.78;;;3.20;;
21810;SDS011;11067;48.788;9.208;2022-12-07T11:20:43;5.43;;;3.03;;
21810;SDS011;11067;48.788;9.208;2022-12-07T11:29:00;3.95;;;2.60;;
21810;SDS011;11067;48.788;9.208;2022-12-07T11:37:23;4.35;;;1.92;;
21810;SDS011;11067;48.788;9.208;2022-12-07T11:39:55;4.18;;;2.03;;
21810;SDS011;11067;48.788;9.208;2022-12-07T11:42:35;5.25;;;2.00;;
21810;SDS011;11067;48.788;9.208;2022-12-07T11:47:54;3.30;;;2.00;;
21810;SDS011;11067;48.788;9.208;2022-12-07T11:53:18;3.60;;;2.03;;
21810;SDS011;11067;48.788;9.208;2022-12-07T11:58:40;3.63;;;2.50;;
21810;SDS011;11067;48.788;9.208;2022-12-07T12:04:01;4.43;;;2.90;;
21810;SDS011;11067;48.788;9.208;2022-12-07T12:06:42;4.38;;;2.80;;
21810;SDS011;11067;48.788;9.208;2022-12-07T12:09:12;6.47;;;3.00;;
21810;SDS011;11067;48.788;9.208;2022-12-07T12:11:54;5.20;;;3.00;;
21810;SDS011;11067;48.788;9.208;2022-12-07T12:17:49;5.60;;;3.50;;
21810;SDS011;11067;48.788;9.208;2022-12-07T12:20:24;4.63;;;3.30;;
21810;SDS011;11067;48.788;9.208;2022-12-07T12:23:14;6.25;;;4.53;;
21810;SDS011;11067;48.788;9.208;2022-12-07T12:25:59;8.27;;;4.00;;
21810;SDS011;11067;48.788;9.208;2022-12-07T12:31:07;4.65;;;3.38;;
21810;SDS011;11067;48.788;9.208;2022-12-07T12:33:34;5.23;;;3.90;;
21810;SDS011;11067;48.788;9.208;2022-12-07T12:36:18;4.78;;;3.60;;
21810;SDS011;11067;48.788;9.208;2022-12-07T12:54:29;6.28;;;3.47;;
21810;SDS011;11067;48.788;9.208;2022-12-07T12:59:34;5.18;;;3.22;;
21810;SDS011;11067;48.788;9.208;2022-12-07T13:04:49;6.30;;;3.65;;
21810;SDS011;11067;48.788;9.208;2022-12-07T13:10:25;5.32;;;3.20;;
21810;SDS011;11067;48.788;9.208;2022-12-07T13:15:43;6.00;;;3.60;;
21810;SDS011;11067;48.788;9.208;2022-12-07T13:20:58;4.70;;;3.15;;
21810;SDS011;11067;48.788;9.208;2022-12-07T13:23:26;5.20;;;3.03;;
21810;SDS011;11067;48.788;9.208;2022-12-07T13:26:09;4.07;;;2.90;;
21810;SDS011;11067;48.788;9.208;2022-12-07T13:28:38;5.15;;;2.88;;
21810;SDS011;11067;48.788;9.208;2022-12-07T13:31:29;11.63;;;7.50;;
21810;SDS011;11067;48.788;9.208;2022-12-07T13:36:53;6.70;;;3.55;;
21810;SDS011;11067;48.788;9.208;2022-12-07T13:39:20;4.85;;;3.28;;
21810;SDS011;11067;48.788;9.208;2022-12-07T13:41:53;5.25;;;3.70;;
21810;SDS011;11067;48.788;9.208;2022-12-07T13:44:21;4.50;;;3.50;;
21810;SDS011;11067;48.788;9.208;2022-12-07T13:49:37;5.10;;;3.45;;
21810;SDS011;11067;48.788;9.208;2022-12-07T13:52:14;6.73;;;3.50;;
21810;SDS011;11067;48.788;9.208;2022-12-07T13:54:57;6.60;;;3.63;;
21810;SDS011;11067;48.788;9.208;2022-12-07T13:57:25;6.13;;;3.50;;
21810;SDS011;11067;48.788;9.208;2022-12-07T13:59:53;4.90;;;3.58;;
21810;SDS011;11067;48.788;9.208;2022-12-07T14:02:26;5.20;;;3.70;;
21810;SDS011;11067;48.788;9.208;2022-12-07T14:05:09;6.85;;;3.92;;
21810;SDS011;11067;48.788;9.208;2022-12-07T14:07:56;10.07;;;4.07;;
21810;SDS011;11067;48.788;9.208;2022-12-07T14:10:28;5.30;;;4.13;;
21810;SDS011;11067;48.788;9.208;2022-12-07T14:12:56;8.33;;;3.53;;
21810;SDS011;11067;48.788;9.208;2022-12-07T14:15:24;6.60;;;4.10;;
21810;SDS011;11067;48.788;9.208;2022-12-07T14:17:54;6.15;;;4.47;;
21810;SDS011;11067;48.788;9.208;2022-12-07T14:22:56;7.07;;;4.00;;
21810;SDS011;11067;48.788;9.208;2022-12-07T14:25:23;7.03;;;3.90;;
21810;SDS011;11067;48.788;9.208;2022-12-07T14:27:58;5.30;;;3.83;;
21810;SDS011;11067;48.788;9.208;2022-12-07T14:30:29;8.00;;;3.90;;
21810;SDS011;11067;48.788;9.208;2022-12-07T14:33:00;6.82;;;4.10;;
21810;SDS011;11067;48.788;9.208;2022-12-07T14:35:30;5.85;;;4.07;;
21810;SDS011;11067;48.788;9.208;2022-12-07T14:37:57;6.03;;;4.30;;
21810;SDS011;11067;48.788;9.208;2022-12-07T14:40:26;7.60;;;4.03;;
21810;SDS011;11067;48.788;9.208;2022-12-07T14:42:54;6.38;;;4.35;;
21810;SDS011;11067;48.788;9.208;2022-12-07T14:45:34;7.25;;;4.50;;
21810;SDS011;11067;48.788;9.208;2022-12-07T14:47:59;7.65;;;4.55;;
21810;SDS011;11067;48.788;9.208;2022-12-07T14:50:25;9.35;;;4.70;;
21810;SDS011;11067;48.788;9.208;2022-12-07T14:52:54;9.43;;;5.13;;
21810;SDS011;11067;48.788;9.208;2022-12-07T14:55:24;9.40;;;4.93;;
21810;SDS011;11067;48.788;9.208;2022-12-07T14:57:50;7.47;;;4.50;;
21810;SDS011;11067;48.788;9.208;2022-12-07T15:00:17;8.38;;;4.95;;
21810;SDS011;11067;48.788;9.208;2022-12-07T15:02:44;6.43;;;4.25;;
21810;SDS011;11067;48.788;9.208;2022-12-07T15:05:10;8.95;;;4.45;;
21810;SDS011;11067;48.788;9.208;2022-12-07T15:07:36;7.68;;;4.80;;
21810;SDS011;11067;48.788;9.208;2022-12-07T15:10:02;7.70;;;4.90;;
21810;SDS011;11067;48.788;9.208;2022-12-07T15:12:28;8.40;;;4.28;;
21810;SDS011;11067;48.788;9.208;2022-12-07T15:14:54;8.87;;;4.80;;
21810;SDS011;11067;48.788;9.208;2022-12-07T15:17:19;8.38;;;5.57;;
21810;SDS011;11067;48.788;9.208;2022-12-07T15:19:45;7.80;;;4.50;;
21810;SDS011;11067;48.788;9.208;2022-12-07T15:22:11;7.50;;;4.47;;
21810;SDS011;11067;48.788;9.208;2022-12-07T15:24:37;5.57;;;3.72;;
21810;SDS011;11067;48.788;9.208;2022-12-07T15:27:02;6.78;;;4.20;;
21810;SDS011;11067;48.788;9.208;2022-12-07T15:29:28;7.53;;;3.93;;
21810;SDS011;11067;48.788;9.208;2022-12-07T15:31:54;7.05;;;4.55;;
21810;SDS011;11067;48.788;9.208;2022-12-07T15:34:20;5.65;;;3.50;;
21810;SDS011;11067;48.788;9.208;2022-12-07T15:36:46;8.70;;;3.80;;
21810;SDS011;11067;48.788;9.208;2022-12-07T15:39:11;6.07;;;4.18;;
21810;SDS011;11067;48.788;9.208;2022-12-07T15:41:37;7.43;;;4.70;;
21810;SDS011;11067;48.788;9.208;2022-12-07T15:44:03;7.35;;;3.67;;
21810;SDS011;11067;48.788;9.208;2022-12-07T15:46:47;5.88;;;3.90;;
21810;SDS011;11067;48.788;9.208;2022-12-07T15:49:14;6.23;;;4.10;;
21810;SDS011;11067;48.788;9.208;2022-12-07T15:51:42;7.20;;;4.43;;
21810;SDS011;11067;48.788;9.208;2022-12-07T15:54:11;7.37;;;4.57;;
21810;SDS011;11067;48.788;9.208;2022-12-07T15:56:43;7.78;;;4.90;;
21810;SDS011;11067;48.788;9.208;2022-12-07T15:59:09;7.60;;;4.83;;
21810;SDS011;11067;48.788;9.208;2022-12-07T16:01:34;8.43;;;5.07;;
21810;SDS011;11067;48.788;9.208;2022-12-07T16:04:00;7.25;;;4.60;;
21810;SDS011;11067;48.788;9.208;2022-12-07T16:06:26;7.68;;;4.13;;
21810;SDS011;11067;48.788;9.208;2022-12-07T16:08:51;6.82;;;4.20;;
21810;SDS011;11067;48.788;9.208;2022-12-07T16:11:17;7.38;;;4.15;;
21810;SDS011;11067;48.788;9.208;2022-12-07T16:13:43;7.70;;;4.60;;
21810;SDS011;11067;48.788;9.208;2022-12-07T16:16:10;9.97;;;4.90;;
21810;SDS011;11067;48.788;9.208;2022-12-07T16:18:38;6.32;;;3.97;;
21810;SDS011;11067;48.788;9.208;2022-12-07T16:21:04;6.75;;;4.60;;
21810;SDS011;11067;48.788;9.208;2022-12-07T16:23:29;8.65;;;5.07;;
21810;SDS011;11067;48.788;9.208;2022-12-07T16:26:02;9.03;;;5.27;;
21810;SDS011;11067;48.788;9.208;2022-12-07T16:28:36;8.90;;;4.85;;
21810;SDS011;11067;48.788;9.208;2022-12-07T16:31:05;8.02;;;4.95;;
21810;SDS011;11067;48.788;9.208;2022-12-07T16:33:34;7.97;;;5.00;;
21810;SDS011;11067;48.788;9.208;2022-12-07T16:36:01;12.50;;;5.80;;
21810;SDS011;11067;48.788;9.208;2022-12-07T16:38:27;8.30;;;5.30;;
21810;SDS011;11067;48.788;9.208;2022-12-07T16:40:53;9.03;;;5.63;;
21810;SDS011;11067;48.788;9.208;2022-12-07T16:43:18;9.97;;;5.70;;
21810;SDS011;11067;48.788;9.208;2022-12-07T16:45:45;9.23;;;5.77;;
21810;SDS011;11067;48.788;9.208;2022-12-07T16:48:12;9.70;;;5.50;;
21810;SDS011;11067;48.788;9.208;2022-12-07T16:50:39;9.60;;;5.72;;
21810;SDS011;11067;48.788;9.208;2022-12-07T16:53:06;13.95;;;6.05;;